Leidy, Pennsylvania
Current Conditions -  °F | °C
As of 12:35 PM on Friday 21 Nov 2014 (Local Time) from KN38 Reporting Station
Overcast Overcast  
Wind Chill: 12°   Ceiling: 3500
Heat Index: 25°   Visibility: 10mi
Dew Point: 10°   Wind: 15mph
Humidity: 54%   Direction: 320°NW
Pressure: 30.29"   Gusts: 21mph
Location:  41.3916°N, 77.7796°W
Report Text: KN38 211735Z AUTO 32013G18KT 10SM OVC035 M04/M12 A3029 RMK AO2
Loading
Personal Weather Stations






























Interactive Weather Map New forecast layout! Learn more

10-Day Weather Forecast

Advertisements
Track Severe Weather on mobile